createdAt,value
2019-04-29T00:02:42.213Z,6.60
2019-04-29T00:07:46.262Z,4.77
2019-04-29T00:12:50.019Z,5.00
2019-04-29T00:17:58.174Z,5.80
2019-04-29T00:23:01.824Z,6.03
2019-04-29T00:28:05.506Z,8.07
2019-04-29T00:33:09.251Z,4.97
2019-04-29T00:38:32.743Z,5.50
2019-04-29T00:43:41.791Z,4.40
2019-04-29T00:48:45.511Z,4.67
2019-04-29T00:53:50.909Z,7.07
2019-04-29T00:58:54.637Z,7.10
2019-04-29T01:03:58.421Z,5.50
2019-04-29T01:09:02.190Z,6.07
2019-04-29T01:14:05.990Z,5.30
2019-04-29T01:19:09.933Z,7.70
2019-04-29T01:24:13.604Z,5.27
2019-04-29T01:29:18.132Z,6.10
2019-04-29T01:34:26.214Z,4.80
2019-04-29T01:39:39.350Z,5.77
2019-04-29T01:44:43.241Z,6.30
2019-04-29T01:49:46.911Z,6.37
2019-04-29T01:54:50.604Z,6.33
2019-04-29T01:59:54.346Z,4.60
2019-04-29T02:04:58.025Z,4.67
2019-04-29T02:10:14.811Z,5.63
2019-04-29T02:15:18.511Z,5.37
2019-04-29T02:20:22.459Z,5.40
2019-04-29T02:25:31.307Z,6.10
2019-04-29T02:30:41.947Z,5.80
2019-04-29T02:35:46.184Z,5.40
2019-04-29T02:40:57.608Z,5.10
2019-04-29T02:46:01.322Z,4.80
2019-04-29T02:51:05.110Z,4.83
2019-04-29T02:56:09.124Z,7.50
2019-04-29T03:01:38.275Z,4.03
2019-04-29T03:06:41.954Z,4.27
2019-04-29T03:11:45.662Z,5.10
2019-04-29T03:16:49.502Z,4.00
2019-04-29T03:21:55.671Z,3.43
2019-04-29T03:26:59.406Z,5.90
2019-04-29T03:32:03.419Z,3.57
2019-04-29T03:37:07.157Z,5.20
2019-04-29T03:42:10.825Z,4.57
2019-04-29T03:47:18.387Z,3.97
2019-04-29T03:52:20.094Z,4.60
2019-04-29T03:57:23.885Z,4.73
2019-04-29T04:02:39.812Z,3.43
2019-04-29T04:07:48.379Z,4.87
2019-04-29T04:12:52.102Z,3.50
2019-04-29T04:18:04.340Z,4.10
2019-04-29T04:23:08.076Z,3.87
2019-04-29T04:28:11.984Z,3.70
2019-04-29T04:33:15.692Z,4.07
2019-04-29T04:38:19.474Z,5.73
2019-04-29T04:43:23.267Z,4.77
2019-04-29T04:48:27.042Z,4.10
2019-04-29T04:53:30.885Z,4.27
2019-04-29T04:58:34.627Z,4.40
2019-04-29T05:03:38.437Z,2.40
2019-04-29T05:08:42.118Z,3.73
2019-04-29T05:13:45.841Z,3.70
2019-04-29T05:18:49.549Z,3.57
2019-04-29T05:23:55.884Z,5.83
2019-04-29T05:28:59.611Z,4.43
2019-04-29T05:34:03.420Z,5.03
2019-04-29T05:39:17.655Z,3.57
2019-04-29T05:44:36.248Z,4.80
2019-04-29T05:49:45.333Z,3.70
2019-04-29T05:54:49.704Z,3.57
2019-04-29T05:59:53.585Z,5.30
2019-04-29T06:04:57.346Z,4.47
2019-04-29T06:10:01.151Z,3.23
2019-04-29T06:15:05.673Z,2.83
2019-04-29T06:20:13.053Z,3.23
2019-04-29T06:25:15.160Z,3.63
2019-04-29T06:30:19.071Z,3.40
2019-04-29T06:35:23.315Z,5.40
2019-04-29T06:40:30.608Z,32.53
2019-04-29T06:45:32.883Z,4.07
2019-04-29T06:50:36.635Z,3.70
2019-04-29T06:55:40.427Z,8.10
2019-04-29T07:00:44.197Z,3.70
2019-04-29T07:05:51.390Z,4.10
2019-04-29T07:10:55.833Z,7.67
2019-04-29T07:15:59.318Z,7.10
2019-04-29T07:21:03.240Z,6.03
2019-04-29T07:26:26.327Z,6.70
2019-04-29T07:31:33.401Z,5.67
2019-04-29T07:36:35.606Z,7.00
2019-04-29T07:41:39.484Z,5.07
2019-04-29T07:46:56.641Z,6.67
2019-04-29T07:51:57.834Z,6.17
2019-04-29T07:57:01.661Z,9.07
2019-04-29T08:02:05.576Z,7.10
2019-04-29T08:07:09.347Z,6.93
2019-04-29T08:12:13.112Z,4.80
2019-04-29T08:17:18.286Z,6.43
2019-04-29T08:22:22.781Z,7.70
2019-04-29T08:27:39.237Z,7.23
2019-04-29T08:32:36.417Z,8.60
2019-04-29T08:37:38.544Z,6.63
2019-04-29T08:42:46.920Z,16.50
2019-04-29T08:47:51.545Z,17.40
2019-04-29T08:52:55.458Z,17.97
2019-04-29T08:57:59.409Z,11.80
2019-04-29T09:03:03.433Z,8.10
2019-04-29T09:08:07.211Z,20.43
2019-04-29T09:19:15.573Z,6.27
2019-04-29T09:24:19.446Z,9.20
2019-04-29T09:29:36.910Z,11.87
2019-04-29T09:34:41.173Z,6.83
2019-04-29T09:39:46.607Z,10.20
2019-04-29T09:45:08.726Z,10.83
2019-04-29T09:50:12.465Z,8.60
2019-04-29T09:55:17.181Z,7.40
2019-04-29T10:00:53.747Z,8.17
2019-04-29T10:06:22.685Z,5.90
2019-04-29T10:11:26.749Z,7.00
2019-04-29T10:16:37.718Z,5.03
2019-04-29T10:21:41.400Z,24.73
2019-04-29T10:26:45.390Z,6.77
2019-04-29T10:31:49.258Z,6.87
2019-04-29T10:36:53.708Z,7.83
2019-04-29T10:41:58.414Z,5.63
2019-04-29T10:47:17.581Z,9.63
2019-04-29T10:52:22.345Z,4.90
2019-04-29T10:57:29.134Z,6.40
2019-04-29T11:02:35.531Z,5.03
2019-04-29T11:07:40.697Z,6.80
2019-04-29T11:12:44.518Z,8.73
2019-04-29T11:17:48.260Z,8.77
2019-04-29T11:22:58.514Z,10.87
2019-04-29T11:28:03.414Z,11.07
2019-04-29T11:33:13.830Z,8.00
2019-04-29T11:38:18.636Z,7.90
2019-04-29T11:43:24.123Z,10.10
2019-04-29T11:48:28.060Z,8.40
2019-04-29T11:53:33.839Z,8.40
2019-04-29T11:58:46.496Z,7.93
2019-04-29T12:03:51.336Z,11.40
2019-04-29T12:08:56.487Z,9.07
2019-04-29T12:14:22.110Z,8.30
2019-04-29T12:19:29.313Z,16.43
2019-04-29T12:24:34.613Z,15.03
2019-04-29T12:29:38.871Z,22.30
2019-04-29T12:35:00.622Z,8.93
2019-04-29T12:40:22.711Z,9.13
2019-04-29T12:45:48.820Z,7.67
2019-04-29T12:50:57.274Z,8.57
2019-04-29T12:55:58.583Z,10.13
2019-04-29T13:01:14.635Z,9.33
2019-04-29T13:06:38.789Z,8.27
2019-04-29T13:11:40.884Z,5.67
2019-04-29T13:16:57.102Z,8.77
2019-04-29T13:22:01.303Z,7.67
2019-04-29T13:27:15.736Z,7.33
2019-04-29T13:32:12.156Z,6.03
2019-04-29T13:37:18.787Z,6.40
2019-04-29T13:42:21.935Z,8.60
2019-04-29T13:47:49.956Z,9.27
2019-04-29T13:52:50.445Z,8.60
2019-04-29T13:57:54.961Z,6.30
2019-04-29T14:03:11.620Z,10.50
2019-04-29T14:08:18.864Z,8.20
2019-04-29T14:13:22.829Z,5.83
2019-04-29T14:18:26.604Z,9.57
2019-04-29T14:23:30.492Z,9.20
2019-04-29T14:28:34.333Z,9.03
2019-04-29T14:33:44.356Z,7.37
2019-04-29T14:38:48.135Z,8.93
2019-04-29T14:44:03.139Z,6.43
2019-04-29T14:49:10.038Z,12.60
2019-04-29T14:54:13.929Z,8.13
2019-04-29T14:59:18.008Z,38.10
2019-04-29T15:04:34.274Z,10.70
2019-04-29T15:09:55.942Z,8.80
2019-04-29T15:15:22.552Z,8.53
2019-04-29T15:20:33.889Z,13.33
2019-04-29T15:25:38.219Z,9.60
2019-04-29T15:30:43.179Z,8.40
2019-04-29T15:35:47.697Z,8.23
2019-04-29T15:40:53.301Z,6.13
2019-04-29T15:45:57.108Z,10.33
2019-04-29T15:51:00.995Z,9.30
2019-04-29T15:56:08.710Z,5.43
2019-04-29T16:01:16.821Z,5.63
2019-04-29T16:06:41.391Z,6.43
2019-04-29T16:12:15.429Z,9.10
2019-04-29T16:17:20.597Z,5.63
2019-04-29T16:22:24.690Z,5.27
2019-04-29T16:27:28.576Z,5.30
2019-04-29T16:32:37.503Z,25.53
2019-04-29T16:37:41.431Z,8.77
2019-04-29T16:43:03.151Z,8.40
2019-04-29T16:48:07.068Z,5.03
2019-04-29T16:53:10.824Z,8.00
2019-04-29T16:58:17.925Z,6.13
2019-04-29T17:03:19.968Z,8.10
2019-04-29T17:08:27.453Z,10.87
2019-04-29T17:13:31.566Z,5.67
2019-04-29T17:18:35.377Z,9.47
2019-04-29T17:23:48.831Z,24.00
2019-04-29T17:29:11.907Z,24.10
2019-04-29T17:34:44.043Z,32.60
2019-04-29T17:39:27.910Z,30.90
2019-04-29T17:44:43.589Z,32.13
2019-04-29T17:50:30.699Z,35.70
2019-04-29T17:55:40.998Z,42.47
2019-04-29T18:01:05.495Z,27.30
2019-04-29T18:06:31.539Z,31.50
2019-04-29T18:11:49.617Z,30.47
2019-04-29T18:16:43.704Z,26.40
2019-04-29T18:22:08.002Z,24.13
2019-04-29T18:27:16.222Z,23.93
2019-04-29T18:32:20.047Z,21.67
2019-04-29T18:37:25.180Z,27.37
2019-04-29T18:42:29.260Z,21.23
2019-04-29T18:47:35.433Z,26.20
2019-04-29T18:52:38.540Z,19.00
2019-04-29T18:57:42.322Z,27.07
2019-04-29T19:02:52.482Z,22.30
2019-04-29T19:07:55.130Z,23.37
2019-04-29T19:13:00.580Z,18.70
2019-04-29T19:18:07.635Z,40.43
2019-04-29T19:23:10.584Z,22.33
2019-04-29T19:28:24.817Z,18.13
2019-04-29T19:33:19.853Z,17.63
2019-04-29T19:38:25.344Z,21.73
2019-04-29T19:43:29.432Z,18.43
2019-04-29T19:48:34.781Z,16.00
2019-04-29T19:53:42.570Z,14.13
2019-04-29T19:58:44.519Z,15.00
2019-04-29T20:04:20.863Z,20.40
2019-04-29T20:09:22.746Z,23.23
2019-04-29T20:14:27.408Z,20.03
2019-04-29T20:19:55.275Z,20.50
2019-04-29T20:24:55.627Z,23.47
2019-04-29T20:29:59.322Z,23.13
2019-04-29T20:35:07.407Z,28.50
2019-04-29T20:40:09.270Z,25.43
2019-04-29T20:45:15.200Z,22.20
2019-04-29T20:50:19.100Z,33.17
2019-04-29T20:55:23.138Z,24.80
2019-04-29T21:00:28.881Z,28.83
2019-04-29T21:05:45.208Z,21.43
2019-04-29T21:10:42.950Z,18.27
2019-04-29T21:16:09.366Z,18.97
2019-04-29T21:21:15.099Z,19.63
2019-04-29T21:26:18.926Z,24.73
2019-04-29T21:31:22.786Z,17.97
2019-04-29T21:36:45.349Z,25.80
2019-04-29T21:41:59.720Z,17.93
2019-04-29T21:47:04.693Z,13.80
2019-04-29T21:52:09.196Z,15.87
2019-04-29T21:57:18.539Z,17.73
2019-04-29T22:02:19.073Z,16.27
2019-04-29T22:07:22.846Z,18.17
2019-04-29T22:12:26.922Z,17.07
2019-04-29T22:17:32.775Z,17.00
2019-04-29T22:22:36.586Z,17.60
2019-04-29T22:27:41.274Z,20.50
2019-04-29T22:32:46.878Z,15.10
2019-04-29T22:37:50.521Z,13.50
2019-04-29T22:43:08.448Z,16.13
2019-04-29T22:48:14.924Z,17.93
2019-04-29T22:53:12.672Z,21.20
2019-04-29T22:58:16.622Z,13.27
2019-04-29T23:03:20.461Z,17.63
2019-04-29T23:08:25.157Z,16.70
2019-04-29T23:13:31.120Z,19.70
2019-04-29T23:18:42.027Z,19.10
2019-04-29T23:23:45.385Z,20.30
2019-04-29T23:28:49.208Z,16.60
2019-04-29T23:33:53.310Z,17.00
2019-04-29T23:38:58.114Z,17.93
2019-04-29T23:44:05.174Z,17.40
2019-04-29T23:49:07.272Z,19.40
2019-04-29T23:54:10.962Z,16.97
2019-04-29T23:59:22.229Z,19.73
